createdAt,value
2018-09-30T00:02:56.997Z,4.02
2018-09-30T00:06:03.095Z,4.00
2018-09-30T00:09:09.452Z,3.96
2018-09-30T00:12:16.426Z,3.91
2018-09-30T00:15:22.247Z,3.78
2018-09-30T00:18:28.120Z,3.75
2018-09-30T00:21:34.894Z,3.73
2018-09-30T00:24:46.701Z,3.74
2018-09-30T00:27:53.449Z,3.74
2018-09-30T00:30:59.721Z,3.72
2018-09-30T00:34:12.048Z,3.65
2018-09-30T00:37:18.793Z,3.61
2018-09-30T00:40:24.832Z,3.61
2018-09-30T00:43:31.019Z,3.59
2018-09-30T00:46:37.099Z,3.56
2018-09-30T00:49:43.234Z,3.55
2018-09-30T00:52:49.441Z,3.55
2018-09-30T00:55:54.458Z,3.51
2018-09-30T00:59:00.621Z,3.45
2018-09-30T01:02:06.595Z,3.50
2018-09-30T01:05:12.541Z,3.49
2018-09-30T01:08:18.702Z,3.37
2018-09-30T01:11:25.579Z,3.26
2018-09-30T01:14:33.056Z,3.25
2018-09-30T01:17:38.121Z,3.21
2018-09-30T01:20:43.949Z,3.23
2018-09-30T01:23:49.949Z,3.21
2018-09-30T01:26:56.673Z,3.10
2018-09-30T01:30:04.645Z,3.11
2018-09-30T01:33:09.647Z,3.00
2018-09-30T01:36:16.509Z,3.04
2018-09-30T01:39:23.222Z,3.04
2018-09-30T01:42:28.383Z,3.07
2018-09-30T01:45:34.682Z,3.01
2018-09-30T01:48:41.014Z,2.94
2018-09-30T01:51:56.457Z,2.99
2018-09-30T01:55:02.317Z,2.96
2018-09-30T01:58:08.062Z,2.78
2018-09-30T02:01:13.904Z,2.82
2018-09-30T02:04:20.889Z,2.85
2018-09-30T02:07:26.649Z,2.84
2018-09-30T02:10:33.206Z,2.82
2018-09-30T02:13:39.376Z,2.74
2018-09-30T02:16:46.365Z,2.68
2018-09-30T02:19:52.114Z,2.66
2018-09-30T02:22:59.394Z,2.73
2018-09-30T02:26:06.177Z,2.77
2018-09-30T02:29:12.741Z,2.55
2018-09-30T02:32:19.168Z,2.60
2018-09-30T02:35:25.411Z,2.66
2018-09-30T02:38:31.275Z,2.61
2018-09-30T02:41:37.106Z,2.55
2018-09-30T02:44:43.853Z,2.56
2018-09-30T02:47:49.550Z,2.54
2018-09-30T02:50:54.577Z,2.50
2018-09-30T02:54:00.415Z,2.45
2018-09-30T02:57:06.622Z,2.44
2018-09-30T03:00:13.917Z,2.45
2018-09-30T03:03:19.728Z,2.43
2018-09-30T03:06:31.366Z,2.38
2018-09-30T03:09:39.265Z,2.34
2018-09-30T03:12:45.398Z,2.28
2018-09-30T03:15:51.126Z,2.33
2018-09-30T03:18:57.349Z,2.29
2018-09-30T03:22:02.386Z,2.29
2018-09-30T03:25:09.129Z,2.22
2018-09-30T03:28:14.834Z,2.21
2018-09-30T03:31:20.802Z,2.21
2018-09-30T03:34:26.572Z,2.10
2018-09-30T03:37:32.602Z,2.07
2018-09-30T03:40:40.126Z,2.09
2018-09-30T03:43:46.167Z,2.05
2018-09-30T03:46:52.342Z,2.05
2018-09-30T03:49:58.202Z,2.05
2018-09-30T03:53:04.361Z,1.99
2018-09-30T03:56:10.236Z,1.99
2018-09-30T03:59:15.958Z,1.98
2018-09-30T04:02:22.939Z,1.96
2018-09-30T04:05:29.508Z,1.94
2018-09-30T04:08:35.457Z,1.84
2018-09-30T04:11:42.073Z,1.84
2018-09-30T04:14:48.211Z,1.82
2018-09-30T04:17:54.082Z,1.85
2018-09-30T04:21:01.686Z,1.84
2018-09-30T04:24:10.333Z,1.83
2018-09-30T04:27:17.161Z,1.86
2018-09-30T04:30:23.720Z,1.88
2018-09-30T04:33:29.797Z,1.80
2018-09-30T04:36:36.147Z,1.74
2018-09-30T04:39:41.181Z,1.81
2018-09-30T04:42:47.083Z,1.85
2018-09-30T04:45:52.924Z,1.79
2018-09-30T04:48:59.696Z,1.80
2018-09-30T04:52:05.548Z,1.78
2018-09-30T04:55:10.589Z,1.80
2018-09-30T04:58:16.665Z,1.72
2018-09-30T05:01:23.337Z,1.70
2018-09-30T05:04:28.362Z,1.72
2018-09-30T05:07:35.038Z,1.79
2018-09-30T05:10:41.945Z,1.83
2018-09-30T05:14:57.102Z,1.70
2018-09-30T05:18:02.793Z,1.68
2018-09-30T05:21:09.451Z,1.74
2018-09-30T05:24:16.300Z,1.69
2018-09-30T05:27:23.395Z,1.72
2018-09-30T05:30:29.238Z,1.77
2018-09-30T05:33:34.903Z,1.80
2018-09-30T05:36:40.788Z,1.79
2018-09-30T05:39:47.625Z,1.81
2018-09-30T05:42:53.629Z,1.86
2018-09-30T05:45:59.623Z,1.85
2018-09-30T05:49:05.745Z,1.84
2018-09-30T05:52:11.520Z,1.86
2018-09-30T05:55:16.648Z,1.84
2018-09-30T05:58:23.269Z,1.91
2018-09-30T06:01:29.845Z,1.90
2018-09-30T06:04:35.981Z,1.94
2018-09-30T06:07:42.098Z,1.99
2018-09-30T06:10:48.029Z,1.99
2018-09-30T06:13:54.285Z,2.05
2018-09-30T06:17:01.059Z,2.10
2018-09-30T06:20:06.563Z,2.05
2018-09-30T06:23:14.152Z,2.11
2018-09-30T06:26:20.151Z,2.21
2018-09-30T06:29:26.612Z,2.26
2018-09-30T06:32:32.605Z,2.29
2018-09-30T06:35:39.362Z,2.42
2018-09-30T06:38:45.137Z,2.52
2018-09-30T06:41:51.205Z,2.62
2018-09-30T06:44:57.502Z,2.70
2018-09-30T06:48:03.597Z,2.78
2018-09-30T06:51:10.386Z,2.90
2018-09-30T06:54:17.062Z,3.01
2018-09-30T06:57:23.330Z,3.18
2018-09-30T07:00:30.228Z,3.42
2018-09-30T07:03:37.515Z,3.65
2018-09-30T07:06:44.329Z,3.78
2018-09-30T07:09:51.209Z,3.93
2018-09-30T07:12:57.190Z,4.09
2018-09-30T07:16:02.198Z,4.25
2018-09-30T07:19:08.305Z,4.40
2018-09-30T07:22:14.927Z,4.61
2018-09-30T07:25:19.902Z,5.22
2018-09-30T07:28:26.567Z,5.53
2018-09-30T07:31:31.669Z,5.65
2018-09-30T07:34:37.810Z,5.73
2018-09-30T07:37:44.566Z,5.82
2018-09-30T07:40:49.573Z,5.99
2018-09-30T07:43:56.180Z,6.26
2018-09-30T07:47:02.122Z,6.57
2018-09-30T07:50:07.278Z,6.84
2018-09-30T07:53:12.415Z,7.12
2018-09-30T07:56:18.455Z,7.41
2018-09-30T07:59:23.663Z,7.62
2018-09-30T08:02:29.439Z,8.02
2018-09-30T08:05:34.465Z,8.27
2018-09-30T08:08:40.472Z,8.60
2018-09-30T08:11:46.594Z,8.93
2018-09-30T08:14:53.458Z,9.28
2018-09-30T08:17:58.523Z,9.60
2018-09-30T08:21:04.945Z,9.80
2018-09-30T08:24:13.048Z,9.80
2018-09-30T08:27:19.605Z,10.09
2018-09-30T08:30:26.146Z,10.14
2018-09-30T08:33:31.927Z,10.34
2018-09-30T08:36:36.960Z,10.73
2018-09-30T08:39:43.102Z,10.80
2018-09-30T08:42:48.689Z,10.90
2018-09-30T08:45:54.978Z,11.14
2018-09-30T08:49:00.667Z,11.27
2018-09-30T08:52:05.733Z,11.44
2018-09-30T08:55:11.900Z,11.56
2018-09-30T08:58:18.482Z,11.84
2018-09-30T09:01:24.922Z,12.28
2018-09-30T09:04:30.707Z,12.61
2018-09-30T09:07:36.749Z,12.91
2018-09-30T09:10:43.312Z,13.28
2018-09-30T09:13:49.534Z,13.51
2018-09-30T09:16:54.522Z,13.82
2018-09-30T09:20:00.493Z,14.06
2018-09-30T09:23:05.716Z,14.14
2018-09-30T09:26:11.487Z,14.26
2018-09-30T09:29:18.577Z,14.67
2018-09-30T09:32:24.611Z,14.78
2018-09-30T09:35:29.658Z,14.71
2018-09-30T09:38:35.561Z,14.80
2018-09-30T09:41:42.389Z,15.14
2018-09-30T09:44:48.895Z,15.21
2018-09-30T09:47:54.601Z,15.23
2018-09-30T09:51:01.085Z,15.10
2018-09-30T09:54:07.863Z,15.17
2018-09-30T09:57:14.443Z,15.15
2018-09-30T10:00:26.379Z,15.45
2018-09-30T10:03:32.521Z,15.62
2018-09-30T10:06:39.978Z,15.82
2018-09-30T10:09:45.963Z,15.96
2018-09-30T10:12:52.733Z,16.18
2018-09-30T10:15:59.424Z,16.28
2018-09-30T10:19:06.206Z,16.13
2018-09-30T10:22:12.837Z,16.35
2018-09-30T10:25:18.617Z,16.40
2018-09-30T10:28:25.883Z,16.48
2018-09-30T10:31:31.857Z,16.66
2018-09-30T10:34:38.636Z,16.92
2018-09-30T10:37:46.017Z,17.21
2018-09-30T10:40:51.936Z,17.30
2018-09-30T10:43:59.138Z,17.48
2018-09-30T10:47:04.181Z,17.70
2018-09-30T10:50:11.122Z,17.80
2018-09-30T10:53:17.397Z,18.03
2018-09-30T10:56:23.735Z,17.93
2018-09-30T10:59:28.915Z,18.11
2018-09-30T11:02:34.660Z,18.22
2018-09-30T11:05:40.723Z,18.43
2018-09-30T11:08:45.743Z,18.46
2018-09-30T11:11:51.610Z,18.62
2018-09-30T11:14:56.667Z,18.86
2018-09-30T11:18:02.390Z,19.14
2018-09-30T11:21:08.764Z,19.18
2018-09-30T11:24:14.531Z,19.34
2018-09-30T11:27:19.619Z,19.47
2018-09-30T11:30:30.316Z,19.62
2018-09-30T11:33:39.420Z,19.78
2018-09-30T11:36:58.003Z,19.85
2018-09-30T11:40:08.179Z,19.85
2018-09-30T11:43:17.984Z,19.87
2018-09-30T11:46:34.860Z,19.93
2018-09-30T11:49:47.045Z,20.08
2018-09-30T11:53:05.971Z,19.99
2018-09-30T11:56:21.525Z,19.97
2018-09-30T11:59:31.884Z,20.18
2018-09-30T12:02:40.495Z,20.00
2018-09-30T12:05:54.638Z,20.04
2018-09-30T12:09:04.842Z,20.00
2018-09-30T12:15:04.743Z,20.06
2018-09-30T12:18:13.222Z,20.39
2018-09-30T12:21:24.059Z,20.61
2018-09-30T12:24:43.121Z,20.48
2018-09-30T12:27:58.292Z,20.51
2018-09-30T12:31:08.849Z,20.57
2018-09-30T12:34:18.897Z,20.78
2018-09-30T12:37:30.614Z,20.81
2018-09-30T12:40:38.126Z,20.91
2018-09-30T12:43:54.244Z,20.89
2018-09-30T12:47:04.663Z,20.78
2018-09-30T12:50:21.142Z,20.60
2018-09-30T12:53:29.771Z,20.60
2018-09-30T12:56:37.566Z,21.01
2018-09-30T12:59:48.021Z,21.30
2018-09-30T13:03:01.168Z,21.58
2018-09-30T13:06:11.618Z,21.30
2018-09-30T13:09:24.058Z,21.55
2018-09-30T13:12:34.738Z,21.76
2018-09-30T13:15:43.621Z,21.73
2018-09-30T13:18:53.138Z,21.66
2018-09-30T13:22:07.404Z,21.88
2018-09-30T13:25:19.055Z,21.73
2018-09-30T13:28:31.687Z,21.81
2018-09-30T13:31:43.337Z,21.54
2018-09-30T13:34:57.403Z,21.43
2018-09-30T13:38:09.645Z,21.66
2018-09-30T13:41:22.995Z,21.85
2018-09-30T13:44:34.483Z,21.84
2018-09-30T13:47:48.117Z,21.80
2018-09-30T13:50:57.122Z,21.64
2018-09-30T13:54:10.498Z,21.54
2018-09-30T13:57:24.395Z,21.53
2018-09-30T14:00:33.677Z,21.31
2018-09-30T14:03:46.380Z,21.52
2018-09-30T14:06:59.326Z,21.68
2018-09-30T14:10:13.175Z,21.80
2018-09-30T14:13:24.283Z,21.71
2018-09-30T14:16:37.638Z,21.90
2018-09-30T14:19:49.317Z,21.88
2018-09-30T14:22:56.899Z,21.89
2018-09-30T14:26:11.994Z,21.97
2018-09-30T14:29:20.106Z,21.95
2018-09-30T14:32:32.816Z,21.74
2018-09-30T14:35:48.163Z,21.77
2018-09-30T14:38:58.583Z,21.71
2018-09-30T14:42:10.194Z,21.51
2018-09-30T14:45:19.847Z,21.51
2018-09-30T14:48:30.054Z,21.29
2018-09-30T14:51:38.543Z,21.17
2018-09-30T14:54:50.497Z,21.20
2018-09-30T14:57:59.148Z,21.15
2018-09-30T15:01:11.783Z,21.23
2018-09-30T15:04:23.882Z,21.17
2018-09-30T15:07:33.031Z,21.00
2018-09-30T15:10:55.715Z,21.12
2018-09-30T15:14:04.558Z,20.94
2018-09-30T15:17:13.766Z,20.79
2018-09-30T15:20:26.945Z,20.56
2018-09-30T15:23:38.506Z,20.53
2018-09-30T15:26:53.529Z,20.63
2018-09-30T15:30:08.367Z,20.61
2018-09-30T15:33:17.516Z,20.50
2018-09-30T15:36:31.368Z,20.48
2018-09-30T15:39:47.168Z,20.34
2018-09-30T15:43:02.538Z,20.30
2018-09-30T15:46:18.028Z,20.24
2018-09-30T15:49:27.775Z,20.02
2018-09-30T15:52:39.196Z,19.86
2018-09-30T15:55:50.330Z,19.57
2018-09-30T15:59:01.138Z,19.41
2018-09-30T16:02:07.836Z,19.33
2018-09-30T16:05:14.068Z,19.23
2018-09-30T16:08:19.108Z,19.11
2018-09-30T16:11:24.184Z,18.97
2018-09-30T16:14:31.560Z,18.79
2018-09-30T16:17:37.801Z,18.61
2018-09-30T16:20:42.989Z,18.43
2018-09-30T16:23:49.704Z,18.23
2018-09-30T16:26:55.833Z,18.00
2018-09-30T16:30:03.549Z,17.76
2018-09-30T16:33:09.926Z,17.60
2018-09-30T16:36:16.077Z,17.32
2018-09-30T16:39:21.879Z,17.12
2018-09-30T16:42:27.942Z,16.91
2018-09-30T16:45:33.038Z,16.85
2018-09-30T16:48:38.860Z,16.80
2018-09-30T16:51:44.989Z,16.68
2018-09-30T16:54:51.444Z,16.55
2018-09-30T16:57:56.894Z,16.41
2018-09-30T17:01:02.040Z,16.33
2018-09-30T17:04:07.917Z,16.25
2018-09-30T17:07:13.701Z,16.20
2018-09-30T17:10:20.577Z,16.13
2018-09-30T17:13:25.706Z,16.03
2018-09-30T17:16:31.519Z,15.93
2018-09-30T17:19:37.227Z,15.90
2018-09-30T17:22:42.766Z,15.82
2018-09-30T17:25:48.650Z,15.77
2018-09-30T17:28:53.687Z,15.71
2018-09-30T17:31:59.544Z,15.65
2018-09-30T17:35:05.673Z,15.59
2018-09-30T17:38:13.585Z,15.54
2018-09-30T17:42:49.276Z,15.46
2018-09-30T17:45:55.893Z,15.25
2018-09-30T17:49:01.869Z,15.24
2018-09-30T17:52:07.795Z,15.26
2018-09-30T17:55:14.192Z,15.26
2018-09-30T17:58:21.251Z,15.21
2018-09-30T18:01:32.855Z,15.13
2018-09-30T18:04:39.768Z,15.13
2018-09-30T18:07:45.694Z,15.12
2018-09-30T18:10:50.779Z,15.12
2018-09-30T18:13:56.366Z,15.10
2018-09-30T18:17:01.816Z,15.09
2018-09-30T18:20:07.302Z,15.05
2018-09-30T18:23:12.455Z,15.01
2018-09-30T18:26:17.590Z,15.02
2018-09-30T18:29:23.663Z,14.99
2018-09-30T18:32:28.899Z,14.94
2018-09-30T18:35:42.596Z,14.86
2018-09-30T18:38:52.035Z,14.87
2018-09-30T18:42:01.830Z,14.80
2018-09-30T18:45:10.356Z,14.51
2018-09-30T18:48:18.154Z,14.27
2018-09-30T18:51:27.876Z,14.45
2018-09-30T18:54:38.137Z,14.52
2018-09-30T18:57:47.982Z,14.58
2018-09-30T19:00:57.648Z,14.59
2018-09-30T19:04:12.667Z,14.56
2018-09-30T19:07:32.994Z,14.51
2018-09-30T19:10:39.147Z,14.44
2018-09-30T19:13:45.353Z,14.39
2018-09-30T19:16:50.627Z,14.33
2018-09-30T19:19:56.605Z,14.29
2018-09-30T19:23:04.173Z,14.23
2018-09-30T19:26:10.144Z,14.06
2018-09-30T19:29:22.536Z,14.01
2018-09-30T19:32:27.616Z,13.91
2018-09-30T19:35:34.478Z,13.84
2018-09-30T19:38:39.551Z,13.66
2018-09-30T19:41:44.703Z,13.60
2018-09-30T19:44:50.417Z,13.47
2018-09-30T19:47:55.604Z,13.34
2018-09-30T19:51:02.040Z,13.34
2018-09-30T19:54:07.314Z,13.19
2018-09-30T19:57:12.859Z,13.20
2018-09-30T20:00:17.933Z,13.19
2018-09-30T20:03:24.448Z,13.06
2018-09-30T20:06:30.179Z,12.94
2018-09-30T20:09:35.621Z,12.87
2018-09-30T20:12:42.751Z,12.81
2018-09-30T20:15:50.082Z,12.76
2018-09-30T20:18:56.226Z,12.73
2018-09-30T20:22:02.390Z,12.70
2018-09-30T20:25:07.493Z,12.73
2018-09-30T20:28:13.802Z,12.74
2018-09-30T20:31:21.677Z,12.72
2018-09-30T20:34:29.789Z,12.69
2018-09-30T20:37:35.064Z,12.62
2018-09-30T20:40:41.636Z,12.54
2018-09-30T20:43:47.520Z,12.47
2018-09-30T20:46:53.479Z,12.39
2018-09-30T20:49:59.593Z,12.35
2018-09-30T20:53:06.895Z,12.28
2018-09-30T20:56:13.954Z,12.21
2018-09-30T20:59:24.465Z,12.20
2018-09-30T21:02:31.449Z,12.14
2018-09-30T21:05:59.567Z,12.01
2018-09-30T21:09:08.633Z,11.91
2018-09-30T21:14:57.245Z,11.67
2018-09-30T21:18:02.281Z,11.61
2018-09-30T21:21:07.331Z,11.54
2018-09-30T21:24:12.549Z,11.52
2018-09-30T21:27:17.735Z,11.46
2018-09-30T21:30:22.780Z,11.38
2018-09-30T21:33:28.130Z,11.26
2018-09-30T21:36:33.159Z,11.12
2018-09-30T21:39:38.187Z,10.98
2018-09-30T21:42:43.203Z,10.90
2018-09-30T21:45:48.278Z,10.84
2018-09-30T21:48:54.301Z,10.76
2018-09-30T21:52:06.069Z,10.70
2018-09-30T21:55:11.132Z,10.61
2018-09-30T21:58:16.108Z,10.46
2018-09-30T22:04:29.158Z,10.31
2018-09-30T22:07:34.171Z,10.24
2018-09-30T22:10:40.431Z,10.18
2018-09-30T22:13:45.476Z,10.06
2018-09-30T22:16:50.497Z,10.00
2018-09-30T22:19:55.524Z,9.92
2018-09-30T22:23:01.297Z,9.83
2018-09-30T22:26:07.846Z,9.69
2018-09-30T22:29:12.883Z,9.60
2018-09-30T22:32:18.738Z,9.46
2018-09-30T22:35:23.751Z,9.46
2018-09-30T22:38:28.944Z,9.38
2018-09-30T22:41:36.268Z,9.31
2018-09-30T22:44:41.327Z,9.23
2018-09-30T22:47:46.400Z,9.14
2018-09-30T22:50:51.404Z,9.04
2018-09-30T22:53:56.534Z,8.92
2018-09-30T22:57:02.307Z,8.77
2018-09-30T23:00:08.308Z,8.74
2018-09-30T23:03:13.356Z,8.66
2018-09-30T23:06:18.389Z,8.61
2018-09-30T23:09:23.457Z,8.54
2018-09-30T23:12:29.433Z,8.47
2018-09-30T23:15:34.489Z,8.46
2018-09-30T23:18:39.768Z,8.38
2018-09-30T23:21:44.797Z,8.31
2018-09-30T23:24:50.065Z,8.21
2018-09-30T23:27:55.111Z,8.13
2018-09-30T23:31:00.154Z,8.07
2018-09-30T23:34:05.452Z,8.02
2018-09-30T23:37:11.683Z,7.95
2018-09-30T23:40:16.746Z,7.88
2018-09-30T23:43:21.801Z,7.79
2018-09-30T23:46:27.490Z,7.73
2018-09-30T23:49:32.578Z,7.61
2018-09-30T23:52:37.605Z,7.57
2018-09-30T23:55:42.632Z,7.48
2018-09-30T23:58:47.660Z,7.35
